sensor_id;sensor_type;location;lat;lon;timestamp;temperature;humidity
40996;DHT22;26723;57.478;12.066;2023-07-16T00:02:37;19.30;99.90
40996;DHT22;26723;57.478;12.066;2023-07-16T00:05:49;19.30;99.90
40996;DHT22;26723;57.478;12.066;2023-07-16T00:08:58;19.30;99.90
40996;DHT22;26723;57.478;12.066;2023-07-16T00:12:07;19.30;99.90
40996;DHT22;26723;57.478;12.066;2023-07-16T00:15:16;19.30;99.90
40996;DHT22;26723;57.478;12.066;2023-07-16T00:18:26;19.30;99.90
40996;DHT22;26723;57.478;12.066;2023-07-16T00:21:36;19.30;99.90
40996;DHT22;26723;57.478;12.066;2023-07-16T00:24:44;19.30;99.90
40996;DHT22;26723;57.478;12.066;2023-07-16T00:27:53;19.30;99.90
40996;DHT22;26723;57.478;12.066;2023-07-16T00:31:01;19.30;99.90
40996;DHT22;26723;57.478;12.066;2023-07-16T00:34:12;19.30;99.90
40996;DHT22;26723;57.478;12.066;2023-07-16T00:37:20;19.20;99.90
40996;DHT22;26723;57.478;12.066;2023-07-16T00:40:29;19.20;99.90
40996;DHT22;26723;57.478;12.066;2023-07-16T00:43:37;19.20;99.90
40996;DHT22;26723;57.478;12.066;2023-07-16T00:46:46;19.20;99.90
40996;DHT22;26723;57.478;12.066;2023-07-16T00:49:56;19.20;99.90
40996;DHT22;26723;57.478;12.066;2023-07-16T00:53:05;19.10;99.90
40996;DHT22;26723;57.478;12.066;2023-07-16T00:56:16;19.10;99.90
40996;DHT22;26723;57.478;12.066;2023-07-16T00:59:25;19.10;99.90
40996;DHT22;26723;57.478;12.066;2023-07-16T01:02:33;19.10;99.90
40996;DHT22;26723;57.478;12.066;2023-07-16T01:05:49;19.10;99.90
40996;DHT22;26723;57.478;12.066;2023-07-16T01:09:02;19.10;99.90
40996;DHT22;26723;57.478;12.066;2023-07-16T01:12:12;19.00;99.90
40996;DHT22;26723;57.478;12.066;2023-07-16T01:15:20;19.00;99.90
40996;DHT22;26723;57.478;12.066;2023-07-16T01:18:29;19.00;99.90
40996;DHT22;26723;57.478;12.066;2023-07-16T01:21:43;19.00;99.90
40996;DHT22;26723;57.478;12.066;2023-07-16T01:25:13;19.00;99.90
40996;DHT22;26723;57.478;12.066;2023-07-16T01:28:43;19.00;99.90
40996;DHT22;26723;57.478;12.066;2023-07-16T01:31:55;18.90;99.90
40996;DHT22;26723;57.478;12.066;2023-07-16T01:35:05;18.90;99.90
40996;DHT22;26723;57.478;12.066;2023-07-16T01:38:16;18.90;99.90
40996;DHT22;26723;57.478;12.066;2023-07-16T01:41:26;18.90;99.90
40996;DHT22;26723;57.478;12.066;2023-07-16T01:44:35;18.80;99.90
40996;DHT22;26723;57.478;12.066;2023-07-16T01:47:55;18.80;99.90
40996;DHT22;26723;57.478;12.066;2023-07-16T01:51:07;18.80;99.90
40996;DHT22;26723;57.478;12.066;2023-07-16T01:54:16;18.70;99.90
40996;DHT22;26723;57.478;12.066;2023-07-16T01:57:24;18.70;99.90
40996;DHT22;26723;57.478;12.066;2023-07-16T02:00:33;18.70;99.90
40996;DHT22;26723;57.478;12.066;2023-07-16T02:03:43;18.60;99.90
40996;DHT22;26723;57.478;12.066;2023-07-16T02:06:51;18.60;99.90
40996;DHT22;26723;57.478;12.066;2023-07-16T02:10:00;18.60;99.90
40996;DHT22;26723;57.478;12.066;2023-07-16T02:13:11;18.50;99.90
40996;DHT22;26723;57.478;12.066;2023-07-16T02:16:20;18.50;99.90
40996;DHT22;26723;57.478;12.066;2023-07-16T02:19:30;18.60;99.90
40996;DHT22;26723;57.478;12.066;2023-07-16T02:22:39;18.60;99.90
40996;DHT22;26723;57.478;12.066;2023-07-16T02:25:48;18.60;99.90
40996;DHT22;26723;57.478;12.066;2023-07-16T02:28:56;18.50;99.90
40996;DHT22;26723;57.478;12.066;2023-07-16T02:32:07;18.50;99.90
40996;DHT22;26723;57.478;12.066;2023-07-16T02:35:18;18.50;99.90
40996;DHT22;26723;57.478;12.066;2023-07-16T02:38:28;18.50;99.90
40996;DHT22;26723;57.478;12.066;2023-07-16T02:41:36;18.50;99.90
40996;DHT22;26723;57.478;12.066;2023-07-16T02:44:46;18.40;99.90
40996;DHT22;26723;57.478;12.066;2023-07-16T02:47:54;18.40;99.90
40996;DHT22;26723;57.478;12.066;2023-07-16T02:51:04;18.40;99.90
40996;DHT22;26723;57.478;12.066;2023-07-16T02:54:13;18.30;99.90
40996;DHT22;26723;57.478;12.066;2023-07-16T02:57:21;18.30;99.90
40996;DHT22;26723;57.478;12.066;2023-07-16T03:00:30;18.30;99.90
40996;DHT22;26723;57.478;12.066;2023-07-16T03:03:39;18.10;99.90
40996;DHT22;26723;57.478;12.066;2023-07-16T03:06:49;18.10;99.90
40996;DHT22;26723;57.478;12.066;2023-07-16T03:09:57;18.10;99.90
40996;DHT22;26723;57.478;12.066;2023-07-16T03:13:06;18.10;99.90
40996;DHT22;26723;57.478;12.066;2023-07-16T03:16:14;18.10;99.90
40996;DHT22;26723;57.478;12.066;2023-07-16T03:19:24;18.10;99.90
40996;DHT22;26723;57.478;12.066;2023-07-16T03:22:36;18.00;99.90
40996;DHT22;26723;57.478;12.066;2023-07-16T03:25:45;18.10;99.90
40996;DHT22;26723;57.478;12.066;2023-07-16T03:28:54;18.00;99.90
40996;DHT22;26723;57.478;12.066;2023-07-16T03:32:03;18.00;99.90
40996;DHT22;26723;57.478;12.066;2023-07-16T03:35:12;18.00;99.90
40996;DHT22;26723;57.478;12.066;2023-07-16T03:38:22;17.90;99.90
40996;DHT22;26723;57.478;12.066;2023-07-16T03:41:32;17.90;99.90
40996;DHT22;26723;57.478;12.066;2023-07-16T03:44:41;17.90;99.90
40996;DHT22;26723;57.478;12.066;2023-07-16T03:47:50;17.90;99.90
40996;DHT22;26723;57.478;12.066;2023-07-16T03:50:59;18.00;99.90
40996;DHT22;26723;57.478;12.066;2023-07-16T03:54:09;18.00;99.90
40996;DHT22;26723;57.478;12.066;2023-07-16T03:57:17;17.90;99.90
40996;DHT22;26723;57.478;12.066;2023-07-16T04:00:26;17.90;99.90
40996;DHT22;26723;57.478;12.066;2023-07-16T04:03:35;17.90;99.90
40996;DHT22;26723;57.478;12.066;2023-07-16T04:06:44;18.00;99.90
40996;DHT22;26723;57.478;12.066;2023-07-16T04:09:54;18.00;99.90
40996;DHT22;26723;57.478;12.066;2023-07-16T04:13:03;18.00;99.90
40996;DHT22;26723;57.478;12.066;2023-07-16T04:16:11;18.00;99.90
40996;DHT22;26723;57.478;12.066;2023-07-16T04:19:20;18.00;99.90
40996;DHT22;26723;57.478;12.066;2023-07-16T04:22:29;18.00;99.90
40996;DHT22;26723;57.478;12.066;2023-07-16T04:25:39;18.00;99.90
40996;DHT22;26723;57.478;12.066;2023-07-16T04:28:47;18.10;99.90
40996;DHT22;26723;57.478;12.066;2023-07-16T04:31:56;18.10;99.90
40996;DHT22;26723;57.478;12.066;2023-07-16T04:35:05;18.10;99.90
40996;DHT22;26723;57.478;12.066;2023-07-16T04:38:14;18.00;99.90
40996;DHT22;26723;57.478;12.066;2023-07-16T04:41:24;18.00;99.90
40996;DHT22;26723;57.478;12.066;2023-07-16T04:44:32;18.00;99.90
40996;DHT22;26723;57.478;12.066;2023-07-16T04:47:41;17.90;99.90
40996;DHT22;26723;57.478;12.066;2023-07-16T04:50:51;17.90;99.90
40996;DHT22;26723;57.478;12.066;2023-07-16T04:53:59;17.80;99.90
40996;DHT22;26723;57.478;12.066;2023-07-16T04:57:09;17.80;99.90
40996;DHT22;26723;57.478;12.066;2023-07-16T05:00:18;17.80;99.90
40996;DHT22;26723;57.478;12.066;2023-07-16T05:03:27;17.80;99.90
40996;DHT22;26723;57.478;12.066;2023-07-16T05:06:36;17.80;99.90
40996;DHT22;26723;57.478;12.066;2023-07-16T05:09:44;17.80;99.90
40996;DHT22;26723;57.478;12.066;2023-07-16T05:12:55;17.90;99.90
40996;DHT22;26723;57.478;12.066;2023-07-16T05:16:04;17.90;99.90
40996;DHT22;26723;57.478;12.066;2023-07-16T05:19:13;18.00;99.90
40996;DHT22;26723;57.478;12.066;2023-07-16T05:22:21;18.00;99.90
40996;DHT22;26723;57.478;12.066;2023-07-16T05:25:30;18.00;99.90
40996;DHT22;26723;57.478;12.066;2023-07-16T05:28:40;18.00;99.90
40996;DHT22;26723;57.478;12.066;2023-07-16T05:31:49;18.10;99.90
40996;DHT22;26723;57.478;12.066;2023-07-16T05:34:57;18.10;99.90
40996;DHT22;26723;57.478;12.066;2023-07-16T05:38:09;18.20;99.90
40996;DHT22;26723;57.478;12.066;2023-07-16T05:41:18;18.20;99.90
40996;DHT22;26723;57.478;12.066;2023-07-16T05:44:31;18.20;99.90
40996;DHT22;26723;57.478;12.066;2023-07-16T05:47:42;18.20;99.90
40996;DHT22;26723;57.478;12.066;2023-07-16T05:50:50;18.30;99.90
40996;DHT22;26723;57.478;12.066;2023-07-16T05:53:59;18.30;99.90
40996;DHT22;26723;57.478;12.066;2023-07-16T05:57:07;18.20;99.90
40996;DHT22;26723;57.478;12.066;2023-07-16T06:00:17;18.20;99.90
40996;DHT22;26723;57.478;12.066;2023-07-16T06:03:26;18.20;99.90
40996;DHT22;26723;57.478;12.066;2023-07-16T06:06:35;18.10;99.90
40996;DHT22;26723;57.478;12.066;2023-07-16T06:09:43;18.20;99.90
40996;DHT22;26723;57.478;12.066;2023-07-16T06:12:52;18.20;99.90
40996;DHT22;26723;57.478;12.066;2023-07-16T06:16:02;18.20;99.90
40996;DHT22;26723;57.478;12.066;2023-07-16T06:19:11;18.20;99.90
40996;DHT22;26723;57.478;12.066;2023-07-16T06:22:19;18.20;99.90
40996;DHT22;26723;57.478;12.066;2023-07-16T06:25:28;18.30;99.90
40996;DHT22;26723;57.478;12.066;2023-07-16T06:28:37;18.30;99.90
40996;DHT22;26723;57.478;12.066;2023-07-16T06:31:55;18.30;99.90
40996;DHT22;26723;57.478;12.066;2023-07-16T06:35:05;18.20;99.90
40996;DHT22;26723;57.478;12.066;2023-07-16T06:38:14;18.20;99.90
40996;DHT22;26723;57.478;12.066;2023-07-16T06:41:22;18.30;99.90
40996;DHT22;26723;57.478;12.066;2023-07-16T06:44:31;18.30;99.90
40996;DHT22;26723;57.478;12.066;2023-07-16T06:47:41;18.40;99.90
40996;DHT22;26723;57.478;12.066;2023-07-16T06:50:50;18.40;99.90
40996;DHT22;26723;57.478;12.066;2023-07-16T06:53:59;18.50;99.90
40996;DHT22;26723;57.478;12.066;2023-07-16T06:57:08;18.50;99.90
40996;DHT22;26723;57.478;12.066;2023-07-16T07:00:17;18.90;99.90
40996;DHT22;26723;57.478;12.066;2023-07-16T07:03:30;19.10;99.90
40996;DHT22;26723;57.478;12.066;2023-07-16T07:06:40;19.90;99.90
40996;DHT22;26723;57.478;12.066;2023-07-16T07:09:49;20.80;99.90
40996;DHT22;26723;57.478;12.066;2023-07-16T07:12:57;21.50;99.90
40996;DHT22;26723;57.478;12.066;2023-07-16T07:16:06;21.70;99.90
40996;DHT22;26723;57.478;12.066;2023-07-16T07:19:16;22.30;99.90
40996;DHT22;26723;57.478;12.066;2023-07-16T07:22:24;22.40;99.90
40996;DHT22;26723;57.478;12.066;2023-07-16T07:25:33;23.00;99.90
40996;DHT22;26723;57.478;12.066;2023-07-16T07:28:44;23.40;99.90
40996;DHT22;26723;57.478;12.066;2023-07-16T07:31:53;22.70;99.90
40996;DHT22;26723;57.478;12.066;2023-07-16T07:35:03;22.90;99.90
40996;DHT22;26723;57.478;12.066;2023-07-16T07:38:16;22.80;99.90
40996;DHT22;26723;57.478;12.066;2023-07-16T07:41:24;22.60;99.90
40996;DHT22;26723;57.478;12.066;2023-07-16T07:44:35;22.30;99.90
40996;DHT22;26723;57.478;12.066;2023-07-16T07:47:44;23.00;99.90
40996;DHT22;26723;57.478;12.066;2023-07-16T07:50:54;23.30;99.90
40996;DHT22;26723;57.478;12.066;2023-07-16T07:54:03;22.90;99.90
40996;DHT22;26723;57.478;12.066;2023-07-16T07:57:11;23.00;99.90
40996;DHT22;26723;57.478;12.066;2023-07-16T08:00:24;23.00;99.90
40996;DHT22;26723;57.478;12.066;2023-07-16T08:03:32;22.40;99.90
40996;DHT22;26723;57.478;12.066;2023-07-16T08:06:42;21.60;99.90
40996;DHT22;26723;57.478;12.066;2023-07-16T08:09:51;21.10;99.90
40996;DHT22;26723;57.478;12.066;2023-07-16T08:13:00;20.80;99.90
40996;DHT22;26723;57.478;12.066;2023-07-16T08:16:08;20.40;99.90
40996;DHT22;26723;57.478;12.066;2023-07-16T08:19:17;20.20;99.90
40996;DHT22;26723;57.478;12.066;2023-07-16T08:22:27;20.40;99.90
40996;DHT22;26723;57.478;12.066;2023-07-16T08:25:36;21.30;99.90
40996;DHT22;26723;57.478;12.066;2023-07-16T08:28:47;22.80;99.90
40996;DHT22;26723;57.478;12.066;2023-07-16T08:31:55;23.40;99.90
40996;DHT22;26723;57.478;12.066;2023-07-16T08:35:04;23.60;99.90
40996;DHT22;26723;57.478;12.066;2023-07-16T08:38:16;23.40;99.90
40996;DHT22;26723;57.478;12.066;2023-07-16T08:41:25;23.40;99.90
40996;DHT22;26723;57.478;12.066;2023-07-16T08:44:34;23.30;99.90
40996;DHT22;26723;57.478;12.066;2023-07-16T08:47:43;23.20;99.90
40996;DHT22;26723;57.478;12.066;2023-07-16T08:50:52;23.30;99.90
40996;DHT22;26723;57.478;12.066;2023-07-16T08:54:02;23.40;99.90
40996;DHT22;26723;57.478;12.066;2023-07-16T08:57:11;23.80;99.90
40996;DHT22;26723;57.478;12.066;2023-07-16T09:00:20;23.90;99.90
40996;DHT22;26723;57.478;12.066;2023-07-16T09:03:30;23.70;99.90
40996;DHT22;26723;57.478;12.066;2023-07-16T09:06:38;24.10;99.90
40996;DHT22;26723;57.478;12.066;2023-07-16T09:09:56;23.70;99.90
40996;DHT22;26723;57.478;12.066;2023-07-16T09:13:08;23.90;99.90
40996;DHT22;26723;57.478;12.066;2023-07-16T09:16:18;24.10;99.90
40996;DHT22;26723;57.478;12.066;2023-07-16T09:19:32;23.70;99.90
40996;DHT22;26723;57.478;12.066;2023-07-16T09:22:40;23.40;99.90
40996;DHT22;26723;57.478;12.066;2023-07-16T09:25:51;22.80;99.90
40996;DHT22;26723;57.478;12.066;2023-07-16T09:28:59;23.30;99.90
40996;DHT22;26723;57.478;12.066;2023-07-16T09:32:08;23.60;99.90
40996;DHT22;26723;57.478;12.066;2023-07-16T09:35:17;23.10;99.90
40996;DHT22;26723;57.478;12.066;2023-07-16T09:38:27;22.60;99.90
40996;DHT22;26723;57.478;12.066;2023-07-16T09:41:39;22.30;99.90
40996;DHT22;26723;57.478;12.066;2023-07-16T09:44:49;22.20;99.90
40996;DHT22;26723;57.478;12.066;2023-07-16T09:48:02;21.80;99.90
40996;DHT22;26723;57.478;12.066;2023-07-16T09:51:11;21.50;99.90
40996;DHT22;26723;57.478;12.066;2023-07-16T09:54:20;21.30;99.90
40996;DHT22;26723;57.478;12.066;2023-07-16T09:57:35;20.90;99.90
40996;DHT22;26723;57.478;12.066;2023-07-16T10:00:46;20.80;99.90
40996;DHT22;26723;57.478;12.066;2023-07-16T10:03:55;20.70;99.90
40996;DHT22;26723;57.478;12.066;2023-07-16T10:07:04;20.50;99.90
40996;DHT22;26723;57.478;12.066;2023-07-16T10:10:12;20.70;99.90
40996;DHT22;26723;57.478;12.066;2023-07-16T10:13:28;21.20;99.90
40996;DHT22;26723;57.478;12.066;2023-07-16T10:16:38;21.30;99.90
40996;DHT22;26723;57.478;12.066;2023-07-16T10:19:49;21.30;99.90
40996;DHT22;26723;57.478;12.066;2023-07-16T10:22:58;21.20;99.90
40996;DHT22;26723;57.478;12.066;2023-07-16T10:26:19;21.40;99.90
40996;DHT22;26723;57.478;12.066;2023-07-16T10:29:30;21.30;99.90
40996;DHT22;26723;57.478;12.066;2023-07-16T10:32:38;21.20;99.90
40996;DHT22;26723;57.478;12.066;2023-07-16T10:35:47;21.40;99.90
40996;DHT22;26723;57.478;12.066;2023-07-16T10:39:03;22.00;99.90
40996;DHT22;26723;57.478;12.066;2023-07-16T10:42:12;21.50;99.90
40996;DHT22;26723;57.478;12.066;2023-07-16T10:45:22;21.40;99.90
40996;DHT22;26723;57.478;12.066;2023-07-16T10:48:30;21.30;99.90
40996;DHT22;26723;57.478;12.066;2023-07-16T10:51:39;21.20;99.90
40996;DHT22;26723;57.478;12.066;2023-07-16T10:54:47;21.20;99.90
40996;DHT22;26723;57.478;12.066;2023-07-16T10:57:56;20.70;99.90
40996;DHT22;26723;57.478;12.066;2023-07-16T11:01:09;20.50;99.90
40996;DHT22;26723;57.478;12.066;2023-07-16T11:04:17;20.20;99.90
40996;DHT22;26723;57.478;12.066;2023-07-16T11:07:26;19.80;99.90
40996;DHT22;26723;57.478;12.066;2023-07-16T11:10:35;19.50;99.90
40996;DHT22;26723;57.478;12.066;2023-07-16T11:13:43;19.10;99.90
40996;DHT22;26723;57.478;12.066;2023-07-16T11:17:04;18.90;99.90
40996;DHT22;26723;57.478;12.066;2023-07-16T11:20:13;18.90;99.90
40996;DHT22;26723;57.478;12.066;2023-07-16T11:23:23;18.90;99.90
40996;DHT22;26723;57.478;12.066;2023-07-16T11:26:31;18.80;99.90
40996;DHT22;26723;57.478;12.066;2023-07-16T11:29:40;18.70;99.90
40996;DHT22;26723;57.478;12.066;2023-07-16T11:32:51;18.90;99.90
40996;DHT22;26723;57.478;12.066;2023-07-16T11:36:01;19.30;99.90
40996;DHT22;26723;57.478;12.066;2023-07-16T11:39:10;19.80;99.90
40996;DHT22;26723;57.478;12.066;2023-07-16T11:42:23;19.90;99.90
40996;DHT22;26723;57.478;12.066;2023-07-16T11:45:31;20.20;99.90
40996;DHT22;26723;57.478;12.066;2023-07-16T11:48:41;20.30;99.90
40996;DHT22;26723;57.478;12.066;2023-07-16T11:51:50;20.30;99.90
40996;DHT22;26723;57.478;12.066;2023-07-16T11:54:59;20.30;99.90
40996;DHT22;26723;57.478;12.066;2023-07-16T11:58:07;20.10;99.90
40996;DHT22;26723;57.478;12.066;2023-07-16T12:01:16;20.20;99.90
40996;DHT22;26723;57.478;12.066;2023-07-16T12:04:26;20.30;99.90
40996;DHT22;26723;57.478;12.066;2023-07-16T12:07:36;20.30;99.90
40996;DHT22;26723;57.478;12.066;2023-07-16T12:10:45;20.30;99.90
40996;DHT22;26723;57.478;12.066;2023-07-16T12:13:53;20.50;99.90
40996;DHT22;26723;57.478;12.066;2023-07-16T12:17:02;20.20;99.90
40996;DHT22;26723;57.478;12.066;2023-07-16T12:20:12;20.40;99.90
40996;DHT22;26723;57.478;12.066;2023-07-16T12:23:21;20.10;99.90
40996;DHT22;26723;57.478;12.066;2023-07-16T12:26:30;20.10;99.90
40996;DHT22;26723;57.478;12.066;2023-07-16T12:29:38;20.10;99.90
40996;DHT22;26723;57.478;12.066;2023-07-16T12:32:48;20.30;99.90
40996;DHT22;26723;57.478;12.066;2023-07-16T12:35:58;20.40;99.90
40996;DHT22;26723;57.478;12.066;2023-07-16T12:39:07;20.70;99.90
40996;DHT22;26723;57.478;12.066;2023-07-16T12:42:15;20.90;99.90
40996;DHT22;26723;57.478;12.066;2023-07-16T12:45:24;21.00;99.90
40996;DHT22;26723;57.478;12.066;2023-07-16T12:48:32;20.80;99.90
40996;DHT22;26723;57.478;12.066;2023-07-16T12:51:42;20.80;99.90
40996;DHT22;26723;57.478;12.066;2023-07-16T12:54:51;20.70;99.90
40996;DHT22;26723;57.478;12.066;2023-07-16T12:58:04;20.70;99.90
40996;DHT22;26723;57.478;12.066;2023-07-16T13:01:12;20.80;99.90
40996;DHT22;26723;57.478;12.066;2023-07-16T13:04:21;20.80;99.90
40996;DHT22;26723;57.478;12.066;2023-07-16T13:07:31;20.40;99.90
40996;DHT22;26723;57.478;12.066;2023-07-16T13:10:40;20.30;99.90
40996;DHT22;26723;57.478;12.066;2023-07-16T13:13:49;20.30;99.90
40996;DHT22;26723;57.478;12.066;2023-07-16T13:16:57;20.40;99.90
40996;DHT22;26723;57.478;12.066;2023-07-16T13:20:09;20.40;99.90
40996;DHT22;26723;57.478;12.066;2023-07-16T13:23:20;20.50;99.90
40996;DHT22;26723;57.478;12.066;2023-07-16T13:26:28;20.50;99.90
40996;DHT22;26723;57.478;12.066;2023-07-16T13:29:37;20.40;99.90
40996;DHT22;26723;57.478;12.066;2023-07-16T13:32:45;20.40;99.90
40996;DHT22;26723;57.478;12.066;2023-07-16T13:35:55;20.40;99.90
40996;DHT22;26723;57.478;12.066;2023-07-16T13:39:08;20.30;99.90
40996;DHT22;26723;57.478;12.066;2023-07-16T13:42:20;20.30;99.90
40996;DHT22;26723;57.478;12.066;2023-07-16T13:45:30;20.30;99.90
40996;DHT22;26723;57.478;12.066;2023-07-16T13:48:40;20.30;99.90
40996;DHT22;26723;57.478;12.066;2023-07-16T13:52:04;20.20;99.90
40996;DHT22;26723;57.478;12.066;2023-07-16T13:55:14;20.00;99.90
40996;DHT22;26723;57.478;12.066;2023-07-16T13:58:24;19.90;99.90
40996;DHT22;26723;57.478;12.066;2023-07-16T14:01:32;19.90;99.90
40996;DHT22;26723;57.478;12.066;2023-07-16T14:04:41;19.90;99.90
40996;DHT22;26723;57.478;12.066;2023-07-16T14:07:49;20.10;99.90
40996;DHT22;26723;57.478;12.066;2023-07-16T14:10:59;20.10;99.90
40996;DHT22;26723;57.478;12.066;2023-07-16T14:14:08;20.10;99.90
40996;DHT22;26723;57.478;12.066;2023-07-16T14:17:16;20.10;99.90
40996;DHT22;26723;57.478;12.066;2023-07-16T14:20:25;20.20;99.90
40996;DHT22;26723;57.478;12.066;2023-07-16T14:23:34;20.20;99.90
40996;DHT22;26723;57.478;12.066;2023-07-16T14:26:43;20.20;99.90
40996;DHT22;26723;57.478;12.066;2023-07-16T14:29:52;20.10;99.90
40996;DHT22;26723;57.478;12.066;2023-07-16T14:33:12;20.00;99.90
40996;DHT22;26723;57.478;12.066;2023-07-16T14:36:21;20.10;99.90
40996;DHT22;26723;57.478;12.066;2023-07-16T14:39:30;20.10;99.90
40996;DHT22;26723;57.478;12.066;2023-07-16T14:42:40;20.00;99.90
40996;DHT22;26723;57.478;12.066;2023-07-16T14:45:49;19.90;99.90
40996;DHT22;26723;57.478;12.066;2023-07-16T14:48:58;19.70;99.90
40996;DHT22;26723;57.478;12.066;2023-07-16T14:52:07;19.60;99.90
40996;DHT22;26723;57.478;12.066;2023-07-16T14:55:15;19.60;99.90
40996;DHT22;26723;57.478;12.066;2023-07-16T14:58:25;19.50;99.90
40996;DHT22;26723;57.478;12.066;2023-07-16T15:01:33;19.60;99.90
40996;DHT22;26723;57.478;12.066;2023-07-16T15:04:42;19.60;99.90
40996;DHT22;26723;57.478;12.066;2023-07-16T15:07:51;19.80;99.90
40996;DHT22;26723;57.478;12.066;2023-07-16T15:10:59;20.00;99.90
40996;DHT22;26723;57.478;12.066;2023-07-16T15:14:09;20.00;99.90
40996;DHT22;26723;57.478;12.066;2023-07-16T15:17:19;20.00;99.90
40996;DHT22;26723;57.478;12.066;2023-07-16T15:20:28;20.00;99.90
40996;DHT22;26723;57.478;12.066;2023-07-16T15:23:37;20.00;99.90
40996;DHT22;26723;57.478;12.066;2023-07-16T15:26:45;20.10;99.90
40996;DHT22;26723;57.478;12.066;2023-07-16T15:29:55;20.10;99.90
40996;DHT22;26723;57.478;12.066;2023-07-16T15:33:04;20.10;99.90
40996;DHT22;26723;57.478;12.066;2023-07-16T15:36:13;20.20;99.90
40996;DHT22;26723;57.478;12.066;2023-07-16T15:39:21;20.10;99.90
40996;DHT22;26723;57.478;12.066;2023-07-16T15:42:30;20.10;99.90
40996;DHT22;26723;57.478;12.066;2023-07-16T15:45:41;20.00;99.90
40996;DHT22;26723;57.478;12.066;2023-07-16T15:48:50;20.00;99.90
40996;DHT22;26723;57.478;12.066;2023-07-16T15:51:58;19.90;99.90
40996;DHT22;26723;57.478;12.066;2023-07-16T15:55:07;20.00;99.90
40996;DHT22;26723;57.478;12.066;2023-07-16T15:58:16;20.00;99.90
40996;DHT22;26723;57.478;12.066;2023-07-16T16:01:29;20.00;99.90
40996;DHT22;26723;57.478;12.066;2023-07-16T16:04:38;20.00;99.90
40996;DHT22;26723;57.478;12.066;2023-07-16T16:08:11;19.90;99.90
40996;DHT22;26723;57.478;12.066;2023-07-16T16:11:20;19.80;99.90
40996;DHT22;26723;57.478;12.066;2023-07-16T16:14:29;19.80;99.90
40996;DHT22;26723;57.478;12.066;2023-07-16T16:17:39;19.70;99.90
40996;DHT22;26723;57.478;12.066;2023-07-16T16:20:48;19.80;99.90
40996;DHT22;26723;57.478;12.066;2023-07-16T16:23:57;19.80;99.90
40996;DHT22;26723;57.478;12.066;2023-07-16T16:27:08;19.90;99.90
40996;DHT22;26723;57.478;12.066;2023-07-16T16:30:16;19.90;99.90
40996;DHT22;26723;57.478;12.066;2023-07-16T16:33:26;19.90;99.90
40996;DHT22;26723;57.478;12.066;2023-07-16T16:36:35;19.70;99.90
40996;DHT22;26723;57.478;12.066;2023-07-16T16:39:43;19.70;99.90
40996;DHT22;26723;57.478;12.066;2023-07-16T16:42:52;19.70;99.90
40996;DHT22;26723;57.478;12.066;2023-07-16T16:46:00;19.70;99.90
40996;DHT22;26723;57.478;12.066;2023-07-16T16:49:10;19.70;99.90
40996;DHT22;26723;57.478;12.066;2023-07-16T16:52:19;19.70;99.90
40996;DHT22;26723;57.478;12.066;2023-07-16T16:55:27;19.70;99.90
40996;DHT22;26723;57.478;12.066;2023-07-16T16:58:36;19.80;99.90
40996;DHT22;26723;57.478;12.066;2023-07-16T17:01:44;19.80;99.90
40996;DHT22;26723;57.478;12.066;2023-07-16T17:04:54;19.70;99.90
40996;DHT22;26723;57.478;12.066;2023-07-16T17:08:04;19.60;99.90
40996;DHT22;26723;57.478;12.066;2023-07-16T17:11:12;19.60;99.90
40996;DHT22;26723;57.478;12.066;2023-07-16T17:14:21;19.60;99.90
40996;DHT22;26723;57.478;12.066;2023-07-16T17:17:30;19.60;99.90
40996;DHT22;26723;57.478;12.066;2023-07-16T17:20:40;19.60;99.90
40996;DHT22;26723;57.478;12.066;2023-07-16T17:23:48;19.60;99.90
40996;DHT22;26723;57.478;12.066;2023-07-16T17:26:57;19.60;99.90
40996;DHT22;26723;57.478;12.066;2023-07-16T17:30:07;19.60;99.90
40996;DHT22;26723;57.478;12.066;2023-07-16T17:33:16;19.50;99.90
40996;DHT22;26723;57.478;12.066;2023-07-16T17:36:26;19.50;99.90
40996;DHT22;26723;57.478;12.066;2023-07-16T17:39:34;19.30;99.90
40996;DHT22;26723;57.478;12.066;2023-07-16T17:42:43;19.20;99.90
40996;DHT22;26723;57.478;12.066;2023-07-16T17:45:54;19.20;99.90
40996;DHT22;26723;57.478;12.066;2023-07-16T17:49:03;19.10;99.90
40996;DHT22;26723;57.478;12.066;2023-07-16T17:52:14;19.10;99.90
40996;DHT22;26723;57.478;12.066;2023-07-16T17:55:22;19.10;99.90
40996;DHT22;26723;57.478;12.066;2023-07-16T17:58:31;19.10;99.90
40996;DHT22;26723;57.478;12.066;2023-07-16T18:01:42;19.10;99.90
40996;DHT22;26723;57.478;12.066;2023-07-16T18:04:54;19.10;99.90
40996;DHT22;26723;57.478;12.066;2023-07-16T18:08:04;19.10;99.90
40996;DHT22;26723;57.478;12.066;2023-07-16T18:11:13;19.20;99.90
40996;DHT22;26723;57.478;12.066;2023-07-16T18:14:21;19.20;99.90
40996;DHT22;26723;57.478;12.066;2023-07-16T18:17:30;19.10;99.90
40996;DHT22;26723;57.478;12.066;2023-07-16T18:20:39;19.10;99.90
40996;DHT22;26723;57.478;12.066;2023-07-16T18:23:50;19.00;99.90
40996;DHT22;26723;57.478;12.066;2023-07-16T18:26:58;18.90;99.90
40996;DHT22;26723;57.478;12.066;2023-07-16T18:30:08;18.80;99.90
40996;DHT22;26723;57.478;12.066;2023-07-16T18:33:17;18.70;99.90
40996;DHT22;26723;57.478;12.066;2023-07-16T18:36:27;18.70;99.90
40996;DHT22;26723;57.478;12.066;2023-07-16T18:39:37;18.70;99.90
40996;DHT22;26723;57.478;12.066;2023-07-16T18:42:46;18.60;99.90
40996;DHT22;26723;57.478;12.066;2023-07-16T18:45:54;18.60;99.90
40996;DHT22;26723;57.478;12.066;2023-07-16T18:49:03;18.70;99.90
40996;DHT22;26723;57.478;12.066;2023-07-16T18:52:11;18.70;99.90
40996;DHT22;26723;57.478;12.066;2023-07-16T18:55:21;18.70;99.90
40996;DHT22;26723;57.478;12.066;2023-07-16T18:58:31;18.70;99.90
40996;DHT22;26723;57.478;12.066;2023-07-16T19:01:39;18.60;99.90
40996;DHT22;26723;57.478;12.066;2023-07-16T19:04:48;18.60;99.90
40996;DHT22;26723;57.478;12.066;2023-07-16T19:07:56;18.70;99.90
40996;DHT22;26723;57.478;12.066;2023-07-16T19:11:07;18.60;99.90
40996;DHT22;26723;57.478;12.066;2023-07-16T19:14:15;18.60;99.90
40996;DHT22;26723;57.478;12.066;2023-07-16T19:17:24;18.60;99.90
40996;DHT22;26723;57.478;12.066;2023-07-16T19:20:33;18.60;99.90
40996;DHT22;26723;57.478;12.066;2023-07-16T19:23:42;18.50;99.90
40996;DHT22;26723;57.478;12.066;2023-07-16T19:26:52;18.40;99.90
40996;DHT22;26723;57.478;12.066;2023-07-16T19:30:00;18.30;99.90
40996;DHT22;26723;57.478;12.066;2023-07-16T19:33:09;18.30;99.90
40996;DHT22;26723;57.478;12.066;2023-07-16T19:36:20;18.30;99.90
40996;DHT22;26723;57.478;12.066;2023-07-16T19:39:29;18.20;99.90